sensor_id;sensor_type;location;lat;lon;timestamp;P1;durP1;ratioP1;P2;durP2;ratioP2
4810;SDS011;2419;51.276;6.472;2024-02-28T00:00:44;38.97;;;16.03;;
4810;SDS011;2419;51.276;6.472;2024-02-28T00:03:12;43.83;;;17.77;;
4810;SDS011;2419;51.276;6.472;2024-02-28T00:05:40;39.30;;;16.47;;
4810;SDS011;2419;51.276;6.472;2024-02-28T00:08:08;38.67;;;16.30;;
4810;SDS011;2419;51.276;6.472;2024-02-28T00:10:36;32.67;;;16.63;;
4810;SDS011;2419;51.276;6.472;2024-02-28T00:13:04;37.50;;;16.50;;
4810;SDS011;2419;51.276;6.472;2024-02-28T00:15:33;38.67;;;16.10;;
4810;SDS011;2419;51.276;6.472;2024-02-28T00:18:03;45.17;;;16.37;;
4810;SDS011;2419;51.276;6.472;2024-02-28T00:20:31;34.00;;;15.87;;
4810;SDS011;2419;51.276;6.472;2024-02-28T00:22:59;37.23;;;16.73;;
4810;SDS011;2419;51.276;6.472;2024-02-28T00:25:27;40.47;;;17.67;;
4810;SDS011;2419;51.276;6.472;2024-02-28T00:27:55;38.50;;;15.20;;
4810;SDS011;2419;51.276;6.472;2024-02-28T00:30:23;38.03;;;17.13;;
4810;SDS011;2419;51.276;6.472;2024-02-28T00:32:51;36.40;;;16.30;;
4810;SDS011;2419;51.276;6.472;2024-02-28T00:35:21;34.03;;;14.70;;
4810;SDS011;2419;51.276;6.472;2024-02-28T00:37:49;42.70;;;18.07;;
4810;SDS011;2419;51.276;6.472;2024-02-28T00:40:17;42.40;;;16.67;;
4810;SDS011;2419;51.276;6.472;2024-02-28T00:42:45;46.93;;;18.40;;
4810;SDS011;2419;51.276;6.472;2024-02-28T00:45:13;42.03;;;17.43;;
4810;SDS011;2419;51.276;6.472;2024-02-28T00:47:41;47.00;;;19.23;;
4810;SDS011;2419;51.276;6.472;2024-02-28T00:50:11;40.93;;;17.50;;
4810;SDS011;2419;51.276;6.472;2024-02-28T00:52:40;45.00;;;17.80;;
4810;SDS011;2419;51.276;6.472;2024-02-28T00:55:08;40.10;;;17.33;;
4810;SDS011;2419;51.276;6.472;2024-02-28T00:57:36;43.27;;;17.23;;
4810;SDS011;2419;51.276;6.472;2024-02-28T01:00:05;51.67;;;18.23;;
4810;SDS011;2419;51.276;6.472;2024-02-28T01:02:36;42.37;;;17.27;;
4810;SDS011;2419;51.276;6.472;2024-02-28T01:05:04;36.10;;;16.67;;
4810;SDS011;2419;51.276;6.472;2024-02-28T01:07:33;40.60;;;16.00;;
4810;SDS011;2419;51.276;6.472;2024-02-28T01:10:02;40.57;;;16.13;;
4810;SDS011;2419;51.276;6.472;2024-02-28T01:12:31;43.47;;;17.77;;
4810;SDS011;2419;51.276;6.472;2024-02-28T01:14:59;36.17;;;15.67;;
4810;SDS011;2419;51.276;6.472;2024-02-28T01:17:27;42.93;;;17.10;;
4810;SDS011;2419;51.276;6.472;2024-02-28T01:19:55;39.87;;;16.53;;
4810;SDS011;2419;51.276;6.472;2024-02-28T01:22:23;50.23;;;18.83;;
4810;SDS011;2419;51.276;6.472;2024-02-28T01:24:51;40.40;;;16.37;;
4810;SDS011;2419;51.276;6.472;2024-02-28T01:27:21;43.07;;;17.77;;
4810;SDS011;2419;51.276;6.472;2024-02-28T01:29:49;42.50;;;18.53;;
4810;SDS011;2419;51.276;6.472;2024-02-28T01:32:17;57.23;;;23.00;;
4810;SDS011;2419;51.276;6.472;2024-02-28T01:34:45;80.20;;;23.63;;
4810;SDS011;2419;51.276;6.472;2024-02-28T01:37:13;123.27;;;28.53;;
4810;SDS011;2419;51.276;6.472;2024-02-28T01:39:41;153.57;;;28.20;;
4810;SDS011;2419;51.276;6.472;2024-02-28T01:42:09;129.13;;;28.30;;
4810;SDS011;2419;51.276;6.472;2024-02-28T01:44:40;111.97;;;26.70;;
4810;SDS011;2419;51.276;6.472;2024-02-28T01:47:12;136.47;;;24.83;;
4810;SDS011;2419;51.276;6.472;2024-02-28T01:49:41;113.87;;;24.77;;
4810;SDS011;2419;51.276;6.472;2024-02-28T01:52:10;81.73;;;24.13;;
4810;SDS011;2419;51.276;6.472;2024-02-28T01:54:39;79.27;;;26.77;;
4810;SDS011;2419;51.276;6.472;2024-02-28T01:57:08;104.27;;;25.33;;
4810;SDS011;2419;51.276;6.472;2024-02-28T01:59:38;163.37;;;26.67;;
4810;SDS011;2419;51.276;6.472;2024-02-28T02:02:07;96.67;;;24.03;;
4810;SDS011;2419;51.276;6.472;2024-02-28T02:04:35;114.60;;;26.97;;
4810;SDS011;2419;51.276;6.472;2024-02-28T02:07:03;151.63;;;27.37;;
4810;SDS011;2419;51.276;6.472;2024-02-28T02:09:31;105.13;;;25.87;;
4810;SDS011;2419;51.276;6.472;2024-02-28T02:12:01;93.67;;;23.50;;
4810;SDS011;2419;51.276;6.472;2024-02-28T02:14:30;118.57;;;24.77;;
4810;SDS011;2419;51.276;6.472;2024-02-28T02:16:59;125.23;;;24.73;;
4810;SDS011;2419;51.276;6.472;2024-02-28T02:19:27;74.40;;;25.20;;
4810;SDS011;2419;51.276;6.472;2024-02-28T02:21:57;207.03;;;25.40;;
4810;SDS011;2419;51.276;6.472;2024-02-28T02:24:27;91.47;;;24.90;;
4810;SDS011;2419;51.276;6.472;2024-02-28T02:26:57;114.80;;;22.70;;
4810;SDS011;2419;51.276;6.472;2024-02-28T02:29:25;90.20;;;24.67;;
4810;SDS011;2419;51.276;6.472;2024-02-28T02:31:55;101.73;;;25.53;;
4810;SDS011;2419;51.276;6.472;2024-02-28T02:34:23;83.03;;;23.30;;
4810;SDS011;2419;51.276;6.472;2024-02-28T02:36:51;94.67;;;25.73;;
4810;SDS011;2419;51.276;6.472;2024-02-28T02:39:19;83.70;;;24.27;;
4810;SDS011;2419;51.276;6.472;2024-02-28T02:41:48;84.27;;;25.57;;
4810;SDS011;2419;51.276;6.472;2024-02-28T02:44:16;89.23;;;24.80;;
4810;SDS011;2419;51.276;6.472;2024-02-28T02:46:44;84.50;;;26.70;;
4810;SDS011;2419;51.276;6.472;2024-02-28T02:49:13;115.93;;;26.83;;
4810;SDS011;2419;51.276;6.472;2024-02-28T02:51:41;94.03;;;27.83;;
4810;SDS011;2419;51.276;6.472;2024-02-28T02:54:10;86.70;;;24.90;;
4810;SDS011;2419;51.276;6.472;2024-02-28T02:56:40;129.50;;;27.23;;
4810;SDS011;2419;51.276;6.472;2024-02-28T02:59:11;95.13;;;28.27;;
4810;SDS011;2419;51.276;6.472;2024-02-28T03:01:39;69.97;;;28.03;;
4810;SDS011;2419;51.276;6.472;2024-02-28T03:04:07;78.67;;;26.17;;
4810;SDS011;2419;51.276;6.472;2024-02-28T03:06:35;103.70;;;26.07;;
4810;SDS011;2419;51.276;6.472;2024-02-28T03:09:03;144.67;;;29.43;;
4810;SDS011;2419;51.276;6.472;2024-02-28T03:11:33;160.57;;;28.23;;
4810;SDS011;2419;51.276;6.472;2024-02-28T03:14:01;83.57;;;25.70;;
4810;SDS011;2419;51.276;6.472;2024-02-28T03:16:31;85.87;;;27.27;;
4810;SDS011;2419;51.276;6.472;2024-02-28T03:19:03;123.37;;;27.77;;
4810;SDS011;2419;51.276;6.472;2024-02-28T03:21:32;121.63;;;29.90;;
4810;SDS011;2419;51.276;6.472;2024-02-28T03:24:00;90.43;;;27.30;;
4810;SDS011;2419;51.276;6.472;2024-02-28T03:26:28;136.50;;;27.73;;
4810;SDS011;2419;51.276;6.472;2024-02-28T03:28:56;84.93;;;29.30;;
4810;SDS011;2419;51.276;6.472;2024-02-28T03:31:25;159.90;;;30.83;;
4810;SDS011;2419;51.276;6.472;2024-02-28T03:33:54;126.47;;;27.10;;
4810;SDS011;2419;51.276;6.472;2024-02-28T03:36:22;123.83;;;27.90;;
4810;SDS011;2419;51.276;6.472;2024-02-28T03:38:51;105.20;;;27.87;;
4810;SDS011;2419;51.276;6.472;2024-02-28T03:41:19;128.20;;;30.27;;
4810;SDS011;2419;51.276;6.472;2024-02-28T03:43:47;116.67;;;28.40;;
4810;SDS011;2419;51.276;6.472;2024-02-28T03:46:15;109.77;;;28.93;;
4810;SDS011;2419;51.276;6.472;2024-02-28T03:48:43;72.00;;;28.07;;
4810;SDS011;2419;51.276;6.472;2024-02-28T03:51:12;97.20;;;26.43;;
4810;SDS011;2419;51.276;6.472;2024-02-28T03:53:40;130.07;;;25.93;;
4810;SDS011;2419;51.276;6.472;2024-02-28T03:56:08;99.37;;;30.30;;
4810;SDS011;2419;51.276;6.472;2024-02-28T03:58:37;128.40;;;27.27;;
4810;SDS011;2419;51.276;6.472;2024-02-28T04:01:07;151.33;;;28.30;;
4810;SDS011;2419;51.276;6.472;2024-02-28T04:03:35;109.30;;;28.70;;
4810;SDS011;2419;51.276;6.472;2024-02-28T04:06:03;117.13;;;29.10;;
4810;SDS011;2419;51.276;6.472;2024-02-28T04:08:32;158.10;;;29.63;;
4810;SDS011;2419;51.276;6.472;2024-02-28T04:11:00;139.03;;;29.87;;
4810;SDS011;2419;51.276;6.472;2024-02-28T04:13:29;113.80;;;30.03;;
4810;SDS011;2419;51.276;6.472;2024-02-28T04:15:57;94.97;;;29.80;;
4810;SDS011;2419;51.276;6.472;2024-02-28T04:18:25;147.33;;;30.57;;
4810;SDS011;2419;51.276;6.472;2024-02-28T04:20:53;106.00;;;28.70;;
4810;SDS011;2419;51.276;6.472;2024-02-28T04:23:21;93.27;;;29.03;;
4810;SDS011;2419;51.276;6.472;2024-02-28T04:25:50;99.23;;;29.23;;
4810;SDS011;2419;51.276;6.472;2024-02-28T04:28:19;159.77;;;31.93;;
4810;SDS011;2419;51.276;6.472;2024-02-28T04:30:47;127.20;;;32.63;;
4810;SDS011;2419;51.276;6.472;2024-02-28T04:33:16;148.77;;;31.20;;
4810;SDS011;2419;51.276;6.472;2024-02-28T04:35:44;103.50;;;31.47;;
4810;SDS011;2419;51.276;6.472;2024-02-28T04:38:12;85.77;;;31.87;;
4810;SDS011;2419;51.276;6.472;2024-02-28T04:40:40;113.10;;;31.97;;
4810;SDS011;2419;51.276;6.472;2024-02-28T04:43:10;127.83;;;31.40;;
4810;SDS011;2419;51.276;6.472;2024-02-28T04:45:38;104.10;;;30.53;;
4810;SDS011;2419;51.276;6.472;2024-02-28T04:48:06;114.77;;;30.30;;
4810;SDS011;2419;51.276;6.472;2024-02-28T04:50:34;106.33;;;29.30;;
4810;SDS011;2419;51.276;6.472;2024-02-28T04:53:02;87.93;;;29.90;;
4810;SDS011;2419;51.276;6.472;2024-02-28T04:55:31;109.83;;;30.20;;
4810;SDS011;2419;51.276;6.472;2024-02-28T04:57:59;126.57;;;30.57;;
4810;SDS011;2419;51.276;6.472;2024-02-28T05:00:28;110.63;;;30.33;;
4810;SDS011;2419;51.276;6.472;2024-02-28T05:02:57;92.43;;;27.70;;
4810;SDS011;2419;51.276;6.472;2024-02-28T05:05:25;91.57;;;29.10;;
4810;SDS011;2419;51.276;6.472;2024-02-28T05:07:53;96.17;;;31.27;;
4810;SDS011;2419;51.276;6.472;2024-02-28T05:10:21;105.67;;;29.20;;
4810;SDS011;2419;51.276;6.472;2024-02-28T05:12:49;103.23;;;32.80;;
4810;SDS011;2419;51.276;6.472;2024-02-28T05:15:17;132.00;;;32.00;;
4810;SDS011;2419;51.276;6.472;2024-02-28T05:17:49;124.63;;;30.57;;
4810;SDS011;2419;51.276;6.472;2024-02-28T05:20:18;106.20;;;29.33;;
4810;SDS011;2419;51.276;6.472;2024-02-28T05:22:46;99.43;;;29.97;;
4810;SDS011;2419;51.276;6.472;2024-02-28T05:25:14;95.27;;;27.20;;
4810;SDS011;2419;51.276;6.472;2024-02-28T05:27:42;75.13;;;27.60;;
4810;SDS011;2419;51.276;6.472;2024-02-28T05:30:11;82.03;;;27.60;;
4810;SDS011;2419;51.276;6.472;2024-02-28T05:32:38;116.23;;;32.27;;
4810;SDS011;2419;51.276;6.472;2024-02-28T05:35:08;125.30;;;30.63;;
4810;SDS011;2419;51.276;6.472;2024-02-28T05:37:37;141.07;;;31.37;;
4810;SDS011;2419;51.276;6.472;2024-02-28T05:40:06;137.50;;;29.20;;
4810;SDS011;2419;51.276;6.472;2024-02-28T05:42:35;145.93;;;30.00;;
4810;SDS011;2419;51.276;6.472;2024-02-28T05:45:04;140.83;;;29.40;;
4810;SDS011;2419;51.276;6.472;2024-02-28T05:47:32;93.70;;;27.20;;
4810;SDS011;2419;51.276;6.472;2024-02-28T05:50:00;94.13;;;27.77;;
4810;SDS011;2419;51.276;6.472;2024-02-28T05:52:30;90.50;;;24.00;;
4810;SDS011;2419;51.276;6.472;2024-02-28T05:54:58;104.83;;;31.80;;
4810;SDS011;2419;51.276;6.472;2024-02-28T05:57:27;120.80;;;27.07;;
4810;SDS011;2419;51.276;6.472;2024-02-28T05:59:55;83.47;;;27.00;;
4810;SDS011;2419;51.276;6.472;2024-02-28T06:02:23;108.77;;;31.03;;
4810;SDS011;2419;51.276;6.472;2024-02-28T06:04:51;91.57;;;28.07;;
4810;SDS011;2419;51.276;6.472;2024-02-28T06:07:19;88.33;;;25.90;;
4810;SDS011;2419;51.276;6.472;2024-02-28T06:09:48;136.80;;;28.60;;
4810;SDS011;2419;51.276;6.472;2024-02-28T06:12:16;82.60;;;28.90;;
4810;SDS011;2419;51.276;6.472;2024-02-28T06:14:45;105.53;;;27.40;;
4810;SDS011;2419;51.276;6.472;2024-02-28T06:17:13;98.73;;;27.50;;
4810;SDS011;2419;51.276;6.472;2024-02-28T06:19:41;96.50;;;27.60;;
4810;SDS011;2419;51.276;6.472;2024-02-28T06:22:09;96.83;;;27.73;;
4810;SDS011;2419;51.276;6.472;2024-02-28T06:24:37;87.90;;;28.50;;
4810;SDS011;2419;51.276;6.472;2024-02-28T06:27:06;115.87;;;30.07;;
4810;SDS011;2419;51.276;6.472;2024-02-28T06:29:38;99.90;;;27.97;;
4810;SDS011;2419;51.276;6.472;2024-02-28T06:32:07;98.97;;;28.70;;
4810;SDS011;2419;51.276;6.472;2024-02-28T06:34:35;113.00;;;27.20;;
4810;SDS011;2419;51.276;6.472;2024-02-28T06:37:03;91.53;;;26.90;;
4810;SDS011;2419;51.276;6.472;2024-02-28T06:39:31;86.87;;;26.20;;
4810;SDS011;2419;51.276;6.472;2024-02-28T06:41:59;117.50;;;31.30;;
4810;SDS011;2419;51.276;6.472;2024-02-28T06:44:28;94.57;;;25.50;;
4810;SDS011;2419;51.276;6.472;2024-02-28T06:46:56;126.53;;;26.27;;
4810;SDS011;2419;51.276;6.472;2024-02-28T06:49:25;94.73;;;26.70;;
4810;SDS011;2419;51.276;6.472;2024-02-28T06:51:53;103.63;;;29.37;;
4810;SDS011;2419;51.276;6.472;2024-02-28T06:54:21;96.57;;;25.37;;
4810;SDS011;2419;51.276;6.472;2024-02-28T06:56:49;95.03;;;28.13;;
4810;SDS011;2419;51.276;6.472;2024-02-28T06:59:17;108.37;;;27.10;;
4810;SDS011;2419;51.276;6.472;2024-02-28T07:01:46;126.60;;;29.10;;
4810;SDS011;2419;51.276;6.472;2024-02-28T07:04:14;109.50;;;29.70;;
4810;SDS011;2419;51.276;6.472;2024-02-28T07:06:43;108.13;;;26.47;;
4810;SDS011;2419;51.276;6.472;2024-02-28T07:09:11;97.00;;;26.90;;
4810;SDS011;2419;51.276;6.472;2024-02-28T07:11:41;120.57;;;29.47;;
4810;SDS011;2419;51.276;6.472;2024-02-28T07:14:09;132.70;;;31.00;;
4810;SDS011;2419;51.276;6.472;2024-02-28T07:16:40;101.13;;;27.87;;
4810;SDS011;2419;51.276;6.472;2024-02-28T07:19:10;110.33;;;26.60;;
4810;SDS011;2419;51.276;6.472;2024-02-28T07:21:38;124.53;;;31.77;;
4810;SDS011;2419;51.276;6.472;2024-02-28T07:24:07;108.40;;;27.17;;
4810;SDS011;2419;51.276;6.472;2024-02-28T07:26:35;135.53;;;31.83;;
4810;SDS011;2419;51.276;6.472;2024-02-28T07:29:03;122.20;;;29.07;;
4810;SDS011;2419;51.276;6.472;2024-02-28T07:31:31;147.47;;;32.90;;
4810;SDS011;2419;51.276;6.472;2024-02-28T07:33:59;109.43;;;28.10;;
4810;SDS011;2419;51.276;6.472;2024-02-28T07:36:28;131.30;;;30.60;;
4810;SDS011;2419;51.276;6.472;2024-02-28T07:38:56;124.50;;;31.87;;
4810;SDS011;2419;51.276;6.472;2024-02-28T07:41:24;135.87;;;32.23;;
4810;SDS011;2419;51.276;6.472;2024-02-28T07:43:52;130.33;;;30.23;;
4810;SDS011;2419;51.276;6.472;2024-02-28T07:46:20;151.23;;;32.20;;
4810;SDS011;2419;51.276;6.472;2024-02-28T07:48:48;150.37;;;33.20;;
4810;SDS011;2419;51.276;6.472;2024-02-28T07:51:16;137.80;;;30.30;;
4810;SDS011;2419;51.276;6.472;2024-02-28T07:53:46;153.80;;;32.17;;
4810;SDS011;2419;51.276;6.472;2024-02-28T07:56:17;126.20;;;31.80;;
4810;SDS011;2419;51.276;6.472;2024-02-28T07:58:45;140.60;;;32.20;;
4810;SDS011;2419;51.276;6.472;2024-02-28T08:01:14;116.77;;;30.50;;
4810;SDS011;2419;51.276;6.472;2024-02-28T08:03:43;107.70;;;27.10;;
4810;SDS011;2419;51.276;6.472;2024-02-28T08:06:11;125.27;;;30.33;;
4810;SDS011;2419;51.276;6.472;2024-02-28T08:08:39;123.07;;;29.80;;
4810;SDS011;2419;51.276;6.472;2024-02-28T08:11:08;138.63;;;32.03;;
4810;SDS011;2419;51.276;6.472;2024-02-28T08:13:36;125.07;;;30.33;;
4810;SDS011;2419;51.276;6.472;2024-02-28T08:16:04;118.27;;;29.83;;
4810;SDS011;2419;51.276;6.472;2024-02-28T08:18:35;125.40;;;32.43;;
4810;SDS011;2419;51.276;6.472;2024-02-28T08:21:03;101.97;;;25.13;;
4810;SDS011;2419;51.276;6.472;2024-02-28T08:23:31;120.83;;;32.17;;
4810;SDS011;2419;51.276;6.472;2024-02-28T08:25:59;127.63;;;31.57;;
4810;SDS011;2419;51.276;6.472;2024-02-28T08:28:29;115.23;;;29.50;;
4810;SDS011;2419;51.276;6.472;2024-02-28T08:30:58;104.07;;;28.73;;
4810;SDS011;2419;51.276;6.472;2024-02-28T08:33:26;121.57;;;28.70;;
4810;SDS011;2419;51.276;6.472;2024-02-28T08:35:54;128.50;;;32.47;;
4810;SDS011;2419;51.276;6.472;2024-02-28T08:38:23;128.07;;;33.50;;
4810;SDS011;2419;51.276;6.472;2024-02-28T08:40:51;121.03;;;30.93;;
4810;SDS011;2419;51.276;6.472;2024-02-28T08:43:19;150.93;;;33.30;;
4810;SDS011;2419;51.276;6.472;2024-02-28T08:45:49;120.70;;;30.43;;
4810;SDS011;2419;51.276;6.472;2024-02-28T08:48:18;98.67;;;27.43;;
4810;SDS011;2419;51.276;6.472;2024-02-28T08:50:46;98.97;;;30.97;;
4810;SDS011;2419;51.276;6.472;2024-02-28T08:53:14;103.80;;;28.33;;
4810;SDS011;2419;51.276;6.472;2024-02-28T08:55:42;108.33;;;27.60;;
4810;SDS011;2419;51.276;6.472;2024-02-28T08:58:10;109.60;;;30.80;;
4810;SDS011;2419;51.276;6.472;2024-02-28T09:00:38;130.90;;;30.23;;
4810;SDS011;2419;51.276;6.472;2024-02-28T09:03:07;112.30;;;30.80;;
4810;SDS011;2419;51.276;6.472;2024-02-28T09:05:35;108.00;;;28.40;;
4810;SDS011;2419;51.276;6.472;2024-02-28T09:08:04;118.90;;;29.87;;
4810;SDS011;2419;51.276;6.472;2024-02-28T09:10:34;129.43;;;29.33;;
4810;SDS011;2419;51.276;6.472;2024-02-28T09:13:02;117.53;;;29.80;;
4810;SDS011;2419;51.276;6.472;2024-02-28T09:15:30;124.13;;;32.97;;
4810;SDS011;2419;51.276;6.472;2024-02-28T09:17:58;106.90;;;28.40;;
4810;SDS011;2419;51.276;6.472;2024-02-28T09:20:28;100.30;;;26.93;;
4810;SDS011;2419;51.276;6.472;2024-02-28T09:22:56;90.80;;;27.03;;
4810;SDS011;2419;51.276;6.472;2024-02-28T09:25:24;99.53;;;26.03;;
4810;SDS011;2419;51.276;6.472;2024-02-28T09:27:54;117.80;;;29.60;;
4810;SDS011;2419;51.276;6.472;2024-02-28T09:30:23;97.43;;;27.80;;
4810;SDS011;2419;51.276;6.472;2024-02-28T09:33:01;111.93;;;27.60;;
4810;SDS011;2419;51.276;6.472;2024-02-28T09:35:30;111.47;;;27.63;;
4810;SDS011;2419;51.276;6.472;2024-02-28T09:37:58;104.93;;;27.80;;
4810;SDS011;2419;51.276;6.472;2024-02-28T09:40:27;101.73;;;27.90;;
4810;SDS011;2419;51.276;6.472;2024-02-28T09:42:56;96.30;;;30.30;;
4810;SDS011;2419;51.276;6.472;2024-02-28T09:45:28;89.87;;;26.87;;
4810;SDS011;2419;51.276;6.472;2024-02-28T09:47:59;98.33;;;27.13;;
4810;SDS011;2419;51.276;6.472;2024-02-28T09:50:27;90.10;;;27.43;;
4810;SDS011;2419;51.276;6.472;2024-02-28T09:52:57;89.60;;;27.30;;
4810;SDS011;2419;51.276;6.472;2024-02-28T09:55:36;89.60;;;28.10;;
4810;SDS011;2419;51.276;6.472;2024-02-28T09:58:04;116.73;;;28.90;;
4810;SDS011;2419;51.276;6.472;2024-02-28T10:00:32;100.37;;;27.50;;
4810;SDS011;2419;51.276;6.472;2024-02-28T10:03:02;101.00;;;28.97;;
4810;SDS011;2419;51.276;6.472;2024-02-28T10:05:32;84.47;;;26.43;;
4810;SDS011;2419;51.276;6.472;2024-02-28T10:08:04;95.40;;;28.33;;
4810;SDS011;2419;51.276;6.472;2024-02-28T10:10:32;85.43;;;25.10;;
4810;SDS011;2419;51.276;6.472;2024-02-28T10:13:00;94.80;;;27.30;;
4810;SDS011;2419;51.276;6.472;2024-02-28T10:15:29;88.23;;;26.63;;
4810;SDS011;2419;51.276;6.472;2024-02-28T10:17:57;80.67;;;24.00;;
4810;SDS011;2419;51.276;6.472;2024-02-28T10:20:26;93.50;;;28.70;;
4810;SDS011;2419;51.276;6.472;2024-02-28T10:22:54;87.47;;;26.53;;
4810;SDS011;2419;51.276;6.472;2024-02-28T10:25:23;73.60;;;25.27;;
4810;SDS011;2419;51.276;6.472;2024-02-28T10:27:58;67.60;;;22.60;;
4810;SDS011;2419;51.276;6.472;2024-02-28T10:30:27;91.60;;;25.73;;
4810;SDS011;2419;51.276;6.472;2024-02-28T10:32:55;74.73;;;23.67;;
4810;SDS011;2419;51.276;6.472;2024-02-28T10:35:23;69.50;;;23.03;;
4810;SDS011;2419;51.276;6.472;2024-02-28T10:37:53;70.50;;;23.23;;
4810;SDS011;2419;51.276;6.472;2024-02-28T10:40:23;73.23;;;24.90;;
4810;SDS011;2419;51.276;6.472;2024-02-28T10:42:52;69.50;;;23.03;;
4810;SDS011;2419;51.276;6.472;2024-02-28T10:45:21;53.77;;;21.00;;
4810;SDS011;2419;51.276;6.472;2024-02-28T10:48:13;61.83;;;22.60;;
4810;SDS011;2419;51.276;6.472;2024-02-28T10:50:43;70.67;;;22.17;;
4810;SDS011;2419;51.276;6.472;2024-02-28T10:53:12;60.17;;;21.87;;
4810;SDS011;2419;51.276;6.472;2024-02-28T10:55:43;53.87;;;19.97;;
4810;SDS011;2419;51.276;6.472;2024-02-28T10:58:15;52.63;;;19.67;;
4810;SDS011;2419;51.276;6.472;2024-02-28T11:00:46;53.30;;;20.00;;
4810;SDS011;2419;51.276;6.472;2024-02-28T11:03:15;56.60;;;20.03;;
4810;SDS011;2419;51.276;6.472;2024-02-28T11:05:44;47.77;;;19.33;;
4810;SDS011;2419;51.276;6.472;2024-02-28T11:08:20;44.80;;;17.70;;
4810;SDS011;2419;51.276;6.472;2024-02-28T11:10:55;44.87;;;19.10;;
4810;SDS011;2419;51.276;6.472;2024-02-28T11:13:25;51.00;;;19.93;;
4810;SDS011;2419;51.276;6.472;2024-02-28T11:15:54;49.40;;;19.83;;
4810;SDS011;2419;51.276;6.472;2024-02-28T11:18:23;55.90;;;19.70;;
4810;SDS011;2419;51.276;6.472;2024-02-28T11:20:51;47.73;;;19.30;;
4810;SDS011;2419;51.276;6.472;2024-02-28T11:23:19;58.27;;;20.53;;
4810;SDS011;2419;51.276;6.472;2024-02-28T11:25:48;54.37;;;20.67;;
4810;SDS011;2419;51.276;6.472;2024-02-28T11:28:17;43.47;;;18.37;;
4810;SDS011;2419;51.276;6.472;2024-02-28T11:30:49;34.17;;;18.17;;
4810;SDS011;2419;51.276;6.472;2024-02-28T11:33:17;45.17;;;19.03;;
4810;SDS011;2419;51.276;6.472;2024-02-28T11:35:53;39.30;;;17.60;;
4810;SDS011;2419;51.276;6.472;2024-02-28T11:38:23;33.73;;;15.40;;
4810;SDS011;2419;51.276;6.472;2024-02-28T11:40:52;35.30;;;17.13;;
4810;SDS011;2419;51.276;6.472;2024-02-28T11:43:24;41.67;;;17.07;;
4810;SDS011;2419;51.276;6.472;2024-02-28T11:45:53;50.13;;;17.13;;
4810;SDS011;2419;51.276;6.472;2024-02-28T11:48:22;35.93;;;15.83;;
4810;SDS011;2419;51.276;6.472;2024-02-28T11:50:52;32.07;;;15.50;;
4810;SDS011;2419;51.276;6.472;2024-02-28T11:53:20;38.97;;;15.53;;
4810;SDS011;2419;51.276;6.472;2024-02-28T11:55:48;33.57;;;14.50;;
4810;SDS011;2419;51.276;6.472;2024-02-28T11:58:16;36.23;;;14.57;;
4810;SDS011;2419;51.276;6.472;2024-02-28T12:00:48;34.47;;;17.10;;
4810;SDS011;2419;51.276;6.472;2024-02-28T12:03:20;40.27;;;16.40;;
4810;SDS011;2419;51.276;6.472;2024-02-28T12:05:49;33.10;;;15.43;;
4810;SDS011;2419;51.276;6.472;2024-02-28T12:08:18;33.07;;;15.50;;
4810;SDS011;2419;51.276;6.472;2024-02-28T12:10:47;39.03;;;16.13;;
4810;SDS011;2419;51.276;6.472;2024-02-28T12:13:16;31.70;;;15.17;;
4810;SDS011;2419;51.276;6.472;2024-02-28T12:15:44;32.03;;;15.07;;
4810;SDS011;2419;51.276;6.472;2024-02-28T12:18:16;36.03;;;15.10;;
4810;SDS011;2419;51.276;6.472;2024-02-28T12:20:44;30.97;;;15.10;;
4810;SDS011;2419;51.276;6.472;2024-02-28T12:23:13;29.00;;;15.70;;
4810;SDS011;2419;51.276;6.472;2024-02-28T12:25:41;37.10;;;16.00;;
4810;SDS011;2419;51.276;6.472;2024-02-28T12:28:09;30.60;;;15.00;;
4810;SDS011;2419;51.276;6.472;2024-02-28T12:30:39;34.77;;;14.43;;
4810;SDS011;2419;51.276;6.472;2024-02-28T12:33:09;33.27;;;14.90;;
4810;SDS011;2419;51.276;6.472;2024-02-28T12:35:40;32.97;;;13.07;;
4810;SDS011;2419;51.276;6.472;2024-02-28T12:38:09;33.07;;;13.57;;
4810;SDS011;2419;51.276;6.472;2024-02-28T12:40:37;29.07;;;13.20;;
4810;SDS011;2419;51.276;6.472;2024-02-28T12:43:05;26.27;;;13.50;;
4810;SDS011;2419;51.276;6.472;2024-02-28T12:45:33;25.40;;;14.13;;
4810;SDS011;2419;51.276;6.472;2024-02-28T12:48:01;26.03;;;12.80;;
4810;SDS011;2419;51.276;6.472;2024-02-28T12:50:31;27.60;;;15.37;;
4810;SDS011;2419;51.276;6.472;2024-02-28T12:53:01;32.00;;;15.00;;
4810;SDS011;2419;51.276;6.472;2024-02-28T12:55:29;31.90;;;14.73;;
4810;SDS011;2419;51.276;6.472;2024-02-28T12:57:57;28.90;;;14.87;;
4810;SDS011;2419;51.276;6.472;2024-02-28T13:00:26;28.33;;;14.13;;
4810;SDS011;2419;51.276;6.472;2024-02-28T13:02:55;29.83;;;13.67;;
4810;SDS011;2419;51.276;6.472;2024-02-28T13:05:23;34.00;;;13.57;;
4810;SDS011;2419;51.276;6.472;2024-02-28T13:07:56;31.43;;;14.60;;
4810;SDS011;2419;51.276;6.472;2024-02-28T13:10:25;29.90;;;13.80;;
4810;SDS011;2419;51.276;6.472;2024-02-28T13:12:53;24.70;;;12.27;;
4810;SDS011;2419;51.276;6.472;2024-02-28T13:15:22;25.93;;;12.20;;
4810;SDS011;2419;51.276;6.472;2024-02-28T13:17:50;22.10;;;11.47;;
4810;SDS011;2419;51.276;6.472;2024-02-28T13:20:19;26.33;;;11.73;;
4810;SDS011;2419;51.276;6.472;2024-02-28T13:22:47;27.63;;;12.80;;
4810;SDS011;2419;51.276;6.472;2024-02-28T13:25:15;28.47;;;12.30;;
4810;SDS011;2419;51.276;6.472;2024-02-28T13:27:47;25.07;;;11.67;;
4810;SDS011;2419;51.276;6.472;2024-02-28T13:30:15;24.87;;;11.50;;
4810;SDS011;2419;51.276;6.472;2024-02-28T13:32:43;25.03;;;12.27;;
4810;SDS011;2419;51.276;6.472;2024-02-28T13:35:14;24.20;;;11.87;;
4810;SDS011;2419;51.276;6.472;2024-02-28T13:37:42;28.50;;;13.20;;
4810;SDS011;2419;51.276;6.472;2024-02-28T13:40:10;27.93;;;11.90;;
4810;SDS011;2419;51.276;6.472;2024-02-28T13:42:39;22.87;;;11.37;;
4810;SDS011;2419;51.276;6.472;2024-02-28T13:45:09;32.43;;;13.53;;
4810;SDS011;2419;51.276;6.472;2024-02-28T13:47:38;30.60;;;12.00;;
4810;SDS011;2419;51.276;6.472;2024-02-28T13:50:06;25.83;;;11.57;;
4810;SDS011;2419;51.276;6.472;2024-02-28T13:52:36;25.13;;;11.93;;
4810;SDS011;2419;51.276;6.472;2024-02-28T13:55:04;25.87;;;13.13;;
4810;SDS011;2419;51.276;6.472;2024-02-28T13:57:34;25.40;;;12.53;;
4810;SDS011;2419;51.276;6.472;2024-02-28T14:00:03;28.27;;;12.20;;
4810;SDS011;2419;51.276;6.472;2024-02-28T14:02:37;26.70;;;12.30;;
4810;SDS011;2419;51.276;6.472;2024-02-28T14:05:05;23.80;;;12.10;;
4810;SDS011;2419;51.276;6.472;2024-02-28T14:07:34;28.87;;;11.70;;
4810;SDS011;2419;51.276;6.472;2024-02-28T14:10:04;22.70;;;11.70;;
4810;SDS011;2419;51.276;6.472;2024-02-28T14:12:33;30.13;;;12.33;;
4810;SDS011;2419;51.276;6.472;2024-02-28T14:15:01;24.70;;;11.20;;
4810;SDS011;2419;51.276;6.472;2024-02-28T14:17:31;22.40;;;9.83;;
4810;SDS011;2419;51.276;6.472;2024-02-28T14:20:00;21.43;;;9.73;;
4810;SDS011;2419;51.276;6.472;2024-02-28T14:22:28;20.73;;;9.57;;
4810;SDS011;2419;51.276;6.472;2024-02-28T14:24:56;25.00;;;10.20;;
4810;SDS011;2419;51.276;6.472;2024-02-28T14:27:24;23.50;;;9.03;;
4810;SDS011;2419;51.276;6.472;2024-02-28T14:29:56;23.27;;;9.93;;
4810;SDS011;2419;51.276;6.472;2024-02-28T14:32:24;16.90;;;8.43;;
4810;SDS011;2419;51.276;6.472;2024-02-28T14:34:52;16.10;;;8.60;;
4810;SDS011;2419;51.276;6.472;2024-02-28T14:37:22;18.77;;;8.53;;
4810;SDS011;2419;51.276;6.472;2024-02-28T14:39:50;17.80;;;9.17;;
4810;SDS011;2419;51.276;6.472;2024-02-28T14:42:18;20.97;;;9.27;;
4810;SDS011;2419;51.276;6.472;2024-02-28T14:44:46;22.93;;;8.87;;
4810;SDS011;2419;51.276;6.472;2024-02-28T14:47:14;20.30;;;9.80;;
4810;SDS011;2419;51.276;6.472;2024-02-28T14:49:42;18.83;;;9.00;;
4810;SDS011;2419;51.276;6.472;2024-02-28T14:52:10;21.30;;;8.97;;